Time;durP1;ratioP1;P1;durP2;ratioP2;P2;SDS_P1;SDS_P2;PMS_P1;PMS_P2;Temp;Humidity;BMP_temperature;BMP_pressure;BME280_temperature;BME280_humidity;BME280_pressure;Samples;Min_cycle;Max_cycle;Signal;HPM_P1;HPM_P2
2022/09/11 00:01:35;;;;;;;9.13;4.07;;;16.40;99.90;;;;;;4991510;28;20058;-81
2022/09/11 00:04:21;;;;;;;8.52;3.50;;;16.30;99.90;;;;;;4992250;28;20042;-80
2022/09/11 00:07:07;;;;;;;8.27;3.97;;;16.30;99.90;;;;;;4976979;28;20510;-80
2022/09/11 00:09:53;;;;;;;9.25;3.80;;;16.30;99.90;;;;;;4992005;28;20057;-81
2022/09/11 00:12:39;;;;;;;9.27;4.10;;;16.30;99.90;;;;;;4991464;28;20043;-81
2022/09/11 00:15:26;;;;;;;7.03;3.80;;;16.30;99.90;;;;;;4977785;28;20517;-81
2022/09/11 00:18:16;;;;;;;8.32;4.13;;;16.30;99.90;;;;;;4992164;28;20106;-80
2022/09/11 00:21:06;;;;;;;8.27;4.70;;;16.20;99.90;;;;;;4992038;28;20046;-80
2022/09/11 00:23:53;;;;;;;7.40;3.88;;;16.20;99.90;;;;;;4990946;28;20105;-80
2022/09/11 00:26:39;;;;;;;6.47;3.97;;;16.20;99.90;;;;;;4992135;28;20051;-80
2022/09/11 00:29:26;;;;;;;9.55;3.15;;;16.20;99.90;;;;;;4991090;28;20047;-82
2022/09/11 00:32:14;;;;;;;8.73;4.68;;;16.10;99.90;;;;;;5000519;28;20065;-80
2022/09/11 00:35:00;;;;;;;8.93;3.65;;;16.10;99.90;;;;;;5011320;28;20110;-81
2022/09/11 00:37:47;;;;;;;9.55;4.72;;;16.10;99.90;;;;;;5014858;28;20059;-82
2022/09/11 00:40:46;;;;;;;6.55;3.35;;;16.00;99.90;;;;;;5000327;28;20049;-80
2022/09/11 00:43:54;;;;;;;9.20;3.33;;;16.00;99.90;;;;;;5013370;28;20049;-80
2022/09/11 00:46:53;;;;;;;7.82;3.95;;;15.90;99.90;;;;;;4996776;28;20136;-80
2022/09/11 00:49:45;;;;;;;8.45;3.88;;;15.90;99.90;;;;;;5000108;28;20505;-81
2022/09/11 00:52:35;;;;;;;7.53;3.70;;;15.90;99.90;;;;;;5013501;28;20141;-81
2022/09/11 00:55:26;;;;;;;6.72;3.28;;;15.80;99.90;;;;;;4995654;28;20046;-80
2022/09/11 00:58:18;;;;;;;6.53;3.90;;;15.80;99.90;;;;;;5013072;28;20050;-80
2022/09/11 01:01:04;;;;;;;6.78;3.65;;;15.80;99.90;;;;;;5013226;28;20050;-80
2022/09/11 01:03:51;;;;;;;6.03;2.85;;;15.70;99.90;;;;;;4999923;28;20124;-79
2022/09/11 01:06:37;;;;;;;6.95;3.08;;;15.70;99.90;;;;;;5013532;28;20046;-80
2022/09/11 01:09:26;;;;;;;9.65;3.55;;;15.60;99.90;;;;;;4982892;28;20049;-79
2022/09/11 01:12:37;;;;;;;7.18;3.30;;;15.60;99.90;;;;;;5014401;28;20081;-79
2022/09/11 01:15:34;;;;;;;7.80;2.67;;;15.60;99.90;;;;;;4995779;28;20581;-80
2022/09/11 01:18:25;;;;;;;6.55;3.47;;;15.50;99.90;;;;;;5014185;28;20137;-79
2022/09/11 01:21:45;;;;;;;5.22;3.20;;;15.50;99.90;;;;;;5013239;28;20057;-79
2022/09/11 01:25:00;;;;;;;6.40;4.00;;;15.50;99.90;;;;;;5015314;28;20134;-81
2022/09/11 01:27:59;;;;;;;6.90;3.45;;;15.40;99.90;;;;;;4981976;28;20154;-81
2022/09/11 01:30:53;;;;;;;6.45;4.57;;;15.40;99.90;;;;;;4995203;28;20046;-80
2022/09/11 01:33:51;;;;;;;7.55;4.32;;;15.30;99.90;;;;;;5014321;28;20117;-80
2022/09/11 01:36:43;;;;;;;8.77;3.78;;;15.30;99.90;;;;;;5013595;28;20085;-80
2022/09/11 01:39:37;;;;;;;6.78;3.08;;;15.30;99.90;;;;;;5011954;28;20050;-79
2022/09/11 01:42:27;;;;;;;5.70;3.10;;;15.30;99.90;;;;;;4999764;28;20119;-79
2022/09/11 01:45:15;;;;;;;8.02;3.50;;;15.20;99.90;;;;;;5012625;28;20057;-79
2022/09/11 01:48:02;;;;;;;5.38;3.40;;;15.20;99.90;;;;;;4999649;28;20086;-81
2022/09/11 01:50:50;;;;;;;8.93;3.40;;;15.20;99.90;;;;;;5012511;28;20050;-79
2022/09/11 01:53:39;;;;;;;6.50;3.53;;;15.10;99.90;;;;;;5011798;28;20512;-79
2022/09/11 01:56:39;;;;;;;9.05;3.05;;;15.10;99.90;;;;;;5011469;28;20057;-79
2022/09/11 01:59:43;;;;;;;6.45;4.15;;;15.20;99.90;;;;;;5012344;28;20042;-80
2022/09/11 02:02:37;;;;;;;9.55;4.03;;;15.10;99.90;;;;;;4996465;28;20077;-81
2022/09/11 02:05:37;;;;;;;8.18;3.17;;;15.10;99.90;;;;;;4981673;28;20069;-79
2022/09/11 02:08:35;;;;;;;7.20;3.38;;;15.10;99.90;;;;;;4995049;28;20136;-80
2022/09/11 02:11:21;;;;;;;7.57;3.60;;;15.00;99.90;;;;;;5011876;28;20088;-80
2022/09/11 02:14:10;;;;;;;6.70;3.35;;;15.00;99.90;;;;;;4994477;28;20057;-80
2022/09/11 02:17:02;;;;;;;7.63;4.53;;;15.00;99.90;;;;;;5013462;28;20042;-80
2022/09/11 02:19:49;;;;;;;11.65;4.55;;;14.90;99.90;;;;;;5013660;28;20083;-78
2022/09/11 02:22:36;;;;;;;7.80;3.80;;;14.90;99.90;;;;;;5013281;28;20041;-79
2022/09/11 02:25:22;;;;;;;6.05;3.10;;;14.90;99.90;;;;;;4994546;28;20054;-79
2022/09/11 02:28:09;;;;;;;7.28;2.70;;;14.80;99.90;;;;;;5013883;28;20038;-80
2022/09/11 02:30:56;;;;;;;8.30;3.42;;;14.80;99.90;;;;;;5012890;28;20050;-80
2022/09/11 02:33:42;;;;;;;9.55;3.92;;;14.80;99.90;;;;;;5012880;28;20057;-80
2022/09/11 02:36:31;;;;;;;6.20;3.10;;;14.80;99.90;;;;;;5011889;28;20397;-79
2022/09/11 02:39:32;;;;;;;6.10;3.97;;;14.80;99.90;;;;;;5013754;28;20489;-80
2022/09/11 02:42:34;;;;;;;5.40;2.80;;;14.70;99.90;;;;;;5015070;28;20136;-79
2022/09/11 02:45:46;;;;;;;7.72;2.72;;;14.70;99.90;;;;;;4996853;28;20057;-79
2022/09/11 02:49:05;;;;;;;7.10;2.75;;;14.70;99.90;;;;;;4997231;28;20511;-81
2022/09/11 02:52:19;;;;;;;11.55;3.05;;;14.70;99.90;;;;;;4994276;28;20064;-79
2022/09/11 02:55:17;;;;;;;6.05;2.60;;;14.60;99.90;;;;;;5002010;28;20050;-80
2022/09/11 02:58:22;;;;;;;8.32;3.63;;;14.60;99.90;;;;;;5009940;28;20133;-80
2022/09/11 03:01:09;;;;;;;6.13;3.17;;;14.60;99.90;;;;;;5011228;28;20080;-80
2022/09/11 03:03:55;;;;;;;6.25;3.10;;;14.60;99.90;;;;;;4981078;28;20135;-79
2022/09/11 03:06:42;;;;;;;5.85;3.05;;;14.60;99.90;;;;;;5011182;28;20134;-79
2022/09/11 03:09:28;;;;;;;5.32;2.83;;;14.50;99.90;;;;;;4994234;28;20100;-80
2022/09/11 03:12:17;;;;;;;6.70;3.15;;;14.50;99.90;;;;;;4992478;28;20124;-78
2022/09/11 03:15:04;;;;;;;6.35;3.85;;;14.50;99.90;;;;;;4993821;28;20046;-80
2022/09/11 03:17:51;;;;;;;10.30;3.63;;;14.50;99.90;;;;;;4994323;28;20088;-82
2022/09/11 03:20:38;;;;;;;7.68;3.40;;;14.40;99.90;;;;;;4994129;28;20509;-81
2022/09/11 03:23:24;;;;;;;6.40;3.50;;;14.40;99.90;;;;;;5010466;28;20478;-80
2022/09/11 03:26:10;;;;;;;5.88;3.10;;;14.40;99.90;;;;;;5011805;28;20041;-79
2022/09/11 03:28:56;;;;;;;5.30;3.28;;;14.40;99.90;;;;;;5011360;28;20073;-80
2022/09/11 03:31:42;;;;;;;5.10;3.10;;;14.40;99.90;;;;;;5010358;28;20053;-80
2022/09/11 03:34:29;;;;;;;6.20;3.70;;;14.30;99.90;;;;;;4993187;28;20112;-79
2022/09/11 03:37:15;;;;;;;6.13;2.95;;;14.30;99.90;;;;;;4992814;28;20058;-80
2022/09/11 03:40:01;;;;;;;5.00;2.47;;;14.30;99.90;;;;;;5011798;28;20050;-79
2022/09/11 03:42:48;;;;;;;5.68;2.25;;;14.30;99.90;;;;;;5011174;28;20128;-79
2022/09/11 03:45:34;;;;;;;6.75;2.60;;;14.20;99.90;;;;;;5011052;28;20045;-79
2022/09/11 03:48:20;;;;;;;5.00;2.83;;;14.20;99.90;;;;;;5009442;28;20049;-80
2022/09/11 03:51:06;;;;;;;4.88;2.70;;;14.20;99.90;;;;;;4994234;28;20060;-80
2022/09/11 03:53:52;;;;;;;4.57;2.25;;;14.20;99.90;;;;;;4992735;28;20065;-80
2022/09/11 03:56:39;;;;;;;4.38;2.10;;;14.20;99.90;;;;;;4995489;28;20092;-80
2022/09/11 03:59:25;;;;;;;4.63;2.58;;;14.10;99.90;;;;;;4994106;28;20060;-79
2022/09/11 04:02:11;;;;;;;6.22;2.40;;;14.10;99.90;;;;;;4993622;28;20112;-80
2022/09/11 04:04:57;;;;;;;5.88;1.98;;;14.10;99.90;;;;;;4997814;28;20513;-80
2022/09/11 04:07:44;;;;;;;4.65;2.10;;;14.10;99.90;;;;;;4996511;28;20123;-80
2022/09/11 04:10:32;;;;;;;6.45;2.15;;;14.10;99.90;;;;;;5013774;28;20053;-80
2022/09/11 04:13:19;;;;;;;5.00;1.70;;;14.00;99.90;;;;;;5014180;28;20081;-79
2022/09/11 04:16:12;;;;;;;4.70;2.10;;;14.00;99.90;;;;;;5014798;28;20077;-80
2022/09/11 04:19:00;;;;;;;5.25;1.90;;;14.00;99.90;;;;;;5014629;28;20049;-79
2022/09/11 04:21:46;;;;;;;3.53;2.05;;;14.00;99.90;;;;;;5015418;28;20050;-80
2022/09/11 04:24:33;;;;;;;7.40;2.40;;;14.00;99.90;;;;;;5015842;28;20046;-80
2022/09/11 04:27:22;;;;;;;3.83;1.90;;;13.90;99.90;;;;;;5015270;28;20486;-80
2022/09/11 04:30:08;;;;;;;6.03;2.50;;;13.90;99.90;;;;;;5014116;28;20113;-80
2022/09/11 04:32:55;;;;;;;5.53;2.35;;;13.90;99.90;;;;;;4996724;28;20057;-80
2022/09/11 04:35:41;;;;;;;7.65;2.33;;;13.90;99.90;;;;;;5013389;28;20046;-80
2022/09/11 04:38:28;;;;;;;7.07;3.08;;;13.90;99.90;;;;;;5015382;28;20045;-79
2022/09/11 04:41:15;;;;;;;6.30;1.83;;;13.90;99.90;;;;;;4996972;28;20101;-80
2022/09/11 04:44:02;;;;;;;4.97;2.17;;;13.80;99.90;;;;;;4997026;28;20161;-80
2022/09/11 04:46:48;;;;;;;4.10;2.05;;;13.80;99.90;;;;;;4997645;28;20053;-80
2022/09/11 04:49:34;;;;;;;3.83;2.05;;;13.80;99.90;;;;;;4996507;28;20046;-80
2022/09/11 04:52:20;;;;;;;3.78;2.20;;;13.80;99.90;;;;;;4995684;28;20053;-80
2022/09/11 04:55:07;;;;;;;8.13;3.60;;;13.80;99.90;;;;;;4986651;28;20057;-79
2022/09/11 04:57:53;;;;;;;8.88;3.45;;;13.80;99.90;;;;;;5013110;28;20050;-79
2022/09/11 05:00:40;;;;;;;5.18;2.95;;;13.70;99.90;;;;;;4984031;28;20041;-79
2022/09/11 05:03:26;;;;;;;5.43;2.83;;;13.70;99.90;;;;;;5013140;28;20498;-79
2022/09/11 05:06:15;;;;;;;6.32;2.92;;;13.70;99.90;;;;;;4996710;28;20064;-79
2022/09/11 05:09:03;;;;;;;6.20;3.17;;;13.70;99.90;;;;;;4995932;28;20552;-79
2022/09/11 05:11:50;;;;;;;7.97;3.67;;;13.70;99.90;;;;;;5012348;28;20052;-80
2022/09/11 05:14:36;;;;;;;8.55;4.72;;;13.70;99.90;;;;;;5012837;28;20100;-80
2022/09/11 05:17:23;;;;;;;8.07;3.80;;;13.70;99.90;;;;;;5012718;28;20049;-80
2022/09/11 05:20:09;;;;;;;8.68;3.72;;;13.70;99.90;;;;;;5013599;28;20069;-81
2022/09/11 05:22:57;;;;;;;9.10;3.65;;;13.70;99.90;;;;;;5011759;28;20050;-78
2022/09/11 05:25:43;;;;;;;8.23;3.28;;;13.70;99.90;;;;;;5012281;28;20046;-81
2022/09/11 05:28:30;;;;;;;4.07;2.58;;;13.70;99.90;;;;;;4996651;28;20053;-79
2022/09/11 05:31:17;;;;;;;4.75;2.83;;;13.70;99.90;;;;;;5011935;28;20050;-79
2022/09/11 05:34:04;;;;;;;5.88;2.80;;;13.70;99.90;;;;;;5011083;28;20117;-79
2022/09/11 05:36:51;;;;;;;5.10;2.25;;;13.70;99.90;;;;;;4995794;28;20092;-79
2022/09/11 05:39:37;;;;;;;4.55;3.05;;;13.70;99.90;;;;;;4982847;28;20056;-78
2022/09/11 05:42:23;;;;;;;3.13;1.77;;;13.80;99.90;;;;;;4995627;28;20049;-80
2022/09/11 05:45:09;;;;;;;4.88;2.30;;;13.80;99.90;;;;;;4982215;28;20050;-78
2022/09/11 05:47:56;;;;;;;6.05;2.63;;;13.80;99.90;;;;;;4999354;28;20081;-79
2022/09/11 05:50:42;;;;;;;6.28;3.35;;;13.80;99.90;;;;;;5010443;28;20373;-79
2022/09/11 05:53:31;;;;;;;4.82;3.30;;;13.80;99.90;;;;;;5013085;28;20054;-78
2022/09/11 05:56:20;;;;;;;4.78;2.88;;;13.80;99.90;;;;;;5012278;28;20065;-78
2022/09/11 05:59:13;;;;;;;5.38;2.83;;;13.90;99.90;;;;;;4994493;28;20054;-78
2022/09/11 06:01:59;;;;;;;6.20;3.03;;;13.80;99.90;;;;;;4994252;28;20052;-79
2022/09/11 06:04:45;;;;;;;4.38;2.55;;;13.90;99.90;;;;;;5012039;28;20111;-79
2022/09/11 06:07:32;;;;;;;6.82;3.75;;;13.90;99.90;;;;;;4994220;28;20053;-79
2022/09/11 06:10:18;;;;;;;9.18;4.47;;;13.90;99.90;;;;;;5012633;28;20441;-79
2022/09/11 06:13:04;;;;;;;7.28;3.70;;;14.00;99.90;;;;;;4998120;28;20072;-79
2022/09/11 06:15:51;;;;;;;9.25;5.25;;;14.00;99.90;;;;;;5011622;28;20056;-79
2022/09/11 06:18:37;;;;;;;9.00;6.32;;;14.10;99.90;;;;;;5012918;28;20064;-79
2022/09/11 06:21:26;;;;;;;12.70;9.45;;;14.20;99.90;;;;;;5011300;28;20049;-79
2022/09/11 06:24:14;;;;;;;19.02;13.85;;;14.30;99.90;;;;;;5011330;28;20552;-80
2022/09/11 06:27:01;;;;;;;18.67;13.55;;;14.40;99.90;;;;;;5012391;28;20457;-79
2022/09/11 06:29:47;;;;;;;21.75;15.50;;;14.60;99.90;;;;;;4980681;28;20493;-79
2022/09/11 06:32:33;;;;;;;17.15;13.50;;;14.60;99.90;;;;;;4980040;28;20053;-78
2022/09/11 06:35:20;;;;;;;17.13;14.10;;;14.70;99.90;;;;;;5010810;28;20046;-78
2022/09/11 06:38:06;;;;;;;16.45;12.70;;;14.80;99.90;;;;;;4997400;28;20073;-78
2022/09/11 06:40:53;;;;;;;16.42;12.20;;;14.80;99.90;;;;;;5009960;28;20096;-80
2022/09/11 06:43:40;;;;;;;13.77;9.18;;;14.80;99.90;;;;;;4994009;28;20136;-80
2022/09/11 06:46:27;;;;;;;10.50;8.25;;;14.80;99.90;;;;;;4994594;28;20140;-80
2022/09/11 06:49:13;;;;;;;15.15;10.95;;;14.80;99.90;;;;;;5010942;28;20096;-78
2022/09/11 06:51:59;;;;;;;20.27;15.93;;;14.80;99.90;;;;;;4994768;28;20045;-79
2022/09/11 06:54:54;;;;;;;18.08;13.82;;;14.80;99.90;;;;;;4995103;28;20042;-81
2022/09/11 06:57:40;;;;;;;14.35;11.57;;;14.90;99.90;;;;;;5011097;28;20433;-79
2022/09/11 07:00:27;;;;;;;13.48;10.75;;;14.90;99.90;;;;;;5010558;28;20133;-79
2022/09/11 07:03:14;;;;;;;17.30;11.75;;;15.00;99.90;;;;;;4998140;28;20049;-78
2022/09/11 07:06:00;;;;;;;12.63;9.52;;;15.00;99.90;;;;;;4995559;28;20129;-78
2022/09/11 07:08:56;;;;;;;13.15;10.10;;;15.00;99.90;;;;;;5010896;28;20053;-81
2022/09/11 07:11:43;;;;;;;16.38;12.45;;;15.00;99.90;;;;;;5010262;28;20048;-81
2022/09/11 07:14:31;;;;;;;10.57;8.23;;;15.10;99.90;;;;;;5010719;28;20065;-80
2022/09/11 07:17:17;;;;;;;15.13;11.57;;;15.20;99.90;;;;;;5011457;28;20053;-80
2022/09/11 07:20:05;;;;;;;17.50;12.75;;;15.50;99.90;;;;;;5010826;28;20049;-80
2022/09/11 07:22:51;;;;;;;21.27;17.40;;;15.90;99.90;;;;;;5010919;28;20512;-80
2022/09/11 07:25:39;;;;;;;23.67;18.05;;;16.10;99.90;;;;;;5011438;28;20417;-79
2022/09/11 07:28:25;;;;;;;22.08;17.27;;;16.50;99.90;;;;;;5010551;28;20050;-80
2022/09/11 07:31:14;;;;;;;18.55;15.07;;;16.80;99.90;;;;;;5010997;28;20089;-80
2022/09/11 07:34:01;;;;;;;19.65;14.68;;;17.00;99.90;;;;;;4979945;28;20477;-80
2022/09/11 07:36:50;;;;;;;19.05;15.18;;;17.30;99.90;;;;;;5011433;28;20125;-79
2022/09/11 07:39:36;;;;;;;15.88;12.18;;;17.50;99.90;;;;;;5010397;28;20149;-80
2022/09/11 07:42:23;;;;;;;13.90;11.77;;;17.70;99.90;;;;;;4994386;28;20054;-80
2022/09/11 07:45:09;;;;;;;14.02;10.77;;;17.90;99.90;;;;;;4994395;28;20050;-79
2022/09/11 07:47:56;;;;;;;15.93;9.73;;;18.00;99.90;;;;;;5010284;28;20513;-80
2022/09/11 07:50:42;;;;;;;15.90;10.93;;;18.20;99.90;;;;;;4994690;28;20050;-80
2022/09/11 07:53:33;;;;;;;16.25;9.50;;;18.40;99.90;;;;;;4996888;28;20056;-80
2022/09/11 07:56:22;;;;;;;10.95;7.40;;;18.60;99.90;;;;;;5010151;28;20137;-80
2022/09/11 07:59:09;;;;;;;11.90;5.63;;;18.80;99.90;;;;;;5010242;28;20070;-81
2022/09/11 08:01:55;;;;;;;9.10;5.47;;;19.00;99.90;;;;;;5010526;28;20046;-80
2022/09/11 08:04:41;;;;;;;7.15;4.70;;;19.20;99.90;;;;;;5010534;28;20460;-80
2022/09/11 08:07:29;;;;;;;9.48;4.20;;;19.40;99.90;;;;;;5009949;28;20041;-79
2022/09/11 08:10:16;;;;;;;5.32;3.03;;;19.60;99.90;;;;;;4993929;28;20050;-81
2022/09/11 08:13:04;;;;;;;5.70;2.95;;;19.80;99.90;;;;;;5009880;28;20064;-80
2022/09/11 08:15:51;;;;;;;6.15;2.53;;;20.00;99.90;;;;;;5010906;28;20412;-82
2022/09/11 08:18:37;;;;;;;6.13;2.45;;;20.20;99.90;;;;;;5011071;28;20049;-80
2022/09/11 08:21:25;;;;;;;8.02;2.80;;;20.30;99.90;;;;;;4996837;28;20157;-79
2022/09/11 08:24:12;;;;;;;4.47;2.67;;;20.20;99.90;;;;;;5010489;28;20046;-80
2022/09/11 08:26:59;;;;;;;6.15;2.63;;;20.20;99.90;;;;;;5010516;28;20054;-80
2022/09/11 08:29:45;;;;;;;6.05;2.25;;;20.20;99.90;;;;;;5010041;28;20058;-80
2022/09/11 08:32:32;;;;;;;7.90;2.38;;;20.00;99.90;;;;;;4980234;28;20086;-81
2022/09/11 08:35:19;;;;;;;5.88;2.58;;;20.00;99.90;;;;;;4996037;28;20054;-79
2022/09/11 08:38:05;;;;;;;5.82;2.60;;;20.10;99.90;;;;;;4994142;28;20391;-80
2022/09/11 08:40:52;;;;;;;6.25;2.20;;;20.10;99.90;;;;;;5011060;28;20045;-81
2022/09/11 08:43:49;;;;;;;3.80;2.10;;;20.10;99.90;;;;;;5010359;28;20417;-79
2022/09/11 08:46:39;;;;;;;4.90;2.80;;;20.20;99.90;;;;;;5009897;28;20050;-81
2022/09/11 08:49:45;;;;;;;5.53;2.50;;;20.40;99.90;;;;;;4992811;28;20046;-81
2022/09/11 08:52:34;;;;;;;5.28;2.42;;;20.80;99.90;;;;;;5009585;28;20052;-79
2022/09/11 08:55:32;;;;;;;3.85;1.88;;;21.20;99.90;;;;;;5008995;28;20513;-79
2022/09/11 08:58:32;;;;;;;6.05;2.30;;;21.30;99.90;;;;;;5013171;28;20509;-79
2022/09/11 09:01:27;;;;;;;5.97;2.10;;;21.40;99.90;;;;;;5013320;28;20553;-82
2022/09/11 09:04:40;;;;;;;6.47;2.33;;;21.50;99.90;;;;;;4997271;28;20050;-79
2022/09/11 09:07:56;;;;;;;5.05;1.80;;;21.70;99.90;;;;;;5011929;28;20053;-81
2022/09/11 09:10:54;;;;;;;5.63;1.55;;;22.00;99.90;;;;;;5012502;28;20563;-79
2022/09/11 09:14:28;;;;;;;3.95;1.70;;;22.20;99.90;;;;;;5013405;28;20049;-81
2022/09/11 09:17:19;;;;;;;5.10;1.98;;;22.20;99.90;;;;;;4954063;28;20142;-83
2022/09/11 09:20:22;;;;;;;7.72;1.70;;;22.00;99.90;;;;;;4953657;28;20055;-77
2022/09/11 09:23:20;;;;;;;5.28;2.17;;;21.90;99.90;;;;;;4999330;28;20101;-79
2022/09/11 09:26:17;;;;;;;4.82;1.70;;;21.90;99.90;;;;;;4995767;28;20112;-80
2022/09/11 09:29:08;;;;;;;5.05;1.50;;;22.10;99.90;;;;;;4994619;28;20049;-79
2022/09/11 09:32:03;;;;;;;6.78;2.35;;;22.10;99.90;;;;;;4995235;28;20058;-80
2022/09/11 09:34:55;;;;;;;4.80;1.63;;;22.20;99.90;;;;;;5012327;28;20066;-80
2022/09/11 09:37:42;;;;;;;4.88;1.80;;;22.30;99.90;;;;;;5012897;28;20045;-79
2022/09/11 09:40:32;;;;;;;5.95;2.33;;;22.50;99.90;;;;;;4982518;28;20144;-78
2022/09/11 09:43:48;;;;;;;5.22;2.20;;;22.80;99.90;;;;;;4999474;28;20046;-78
2022/09/11 09:46:40;;;;;;;;;;;23.00;99.90;;;;;;5012814;28;20074;-81
2022/09/11 09:49:32;;;;;;;4.78;2.08;;;23.40;99.90;;;;;;5013114;28;19921;-80
2022/09/11 09:52:23;;;;;;;4.05;2.17;;;23.60;99.90;;;;;;5011636;28;20572;-80
2022/09/11 09:55:20;;;;;;;6.22;2.28;;;23.50;99.90;;;;;;5011537;28;20495;-79
2022/09/11 09:58:06;;;;;;;5.32;1.98;;;23.50;99.90;;;;;;5011758;28;20458;-79
2022/09/11 10:00:52;;;;;;;5.60;2.40;;;23.60;99.90;;;;;;4995398;28;20166;-80
2022/09/11 10:03:38;;;;;;;3.55;1.90;;;23.90;99.90;;;;;;5012148;28;20042;-79
2022/09/11 10:06:25;;;;;;;4.57;1.95;;;24.00;99.90;;;;;;4998610;28;20056;-78
2022/09/11 10:09:45;;;;;;;5.72;1.80;;;24.10;99.90;;;;;;5011848;28;20049;-79
2022/09/11 10:12:32;;;;;;;4.60;1.85;;;24.30;99.90;;;;;;5011207;28;20045;-83
2022/09/11 10:15:21;;;;;;;4.22;1.42;;;24.60;99.60;;;;;;5012566;28;20045;-77
2022/09/11 10:18:29;;;;;;;5.80;1.70;;;24.50;98.90;;;;;;5012289;28;20112;-81
2022/09/11 10:21:38;;;;;;;5.03;1.98;;;24.70;98.50;;;;;;5011992;28;20137;-81
2022/09/11 10:24:29;;;;;;;5.57;1.77;;;25.30;98.80;;;;;;4998735;28;20061;-78
2022/09/11 10:27:15;;;;;;;6.07;1.75;;;25.70;98.50;;;;;;5010918;28;20468;-82
2022/09/11 10:30:04;;;;;;;5.28;2.00;;;25.60;97.60;;;;;;4995223;28;20052;-80
2022/09/11 10:32:50;;;;;;;4.82;2.25;;;25.90;97.30;;;;;;4983826;28;20046;-79
2022/09/11 10:35:36;;;;;;;4.78;1.60;;;26.00;97.10;;;;;;4984749;28;20045;-82
2022/09/11 10:38:30;;;;;;;6.15;2.00;;;26.30;96.70;;;;;;5011699;28;20053;-80
2022/09/11 10:41:20;;;;;;;3.83;1.73;;;26.00;97.10;;;;;;5012588;28;20054;-83
2022/09/11 10:44:14;;;;;;;3.10;1.50;;;26.30;97.20;;;;;;5011985;28;20422;-80
2022/09/11 10:47:21;;;;;;;3.55;1.80;;;26.40;96.60;;;;;;5012722;28;20089;-82
2022/09/11 10:50:17;;;;;;;5.72;2.17;;;26.60;95.60;;;;;;4997340;28;20080;-81
2022/09/11 10:53:22;;;;;;;5.57;2.40;;;26.20;95.60;;;;;;5011821;28;20098;-79
2022/09/11 10:56:09;;;;;;;4.32;1.88;;;26.40;95.70;;;;;;4998448;28;20046;-80
2022/09/11 10:59:04;;;;;;;4.95;1.80;;;25.90;96.30;;;;;;4996777;28;20046;-79
2022/09/11 11:01:50;;;;;;;;;;;26.40;96.10;;;;;;4994196;28;20105;-80
2022/09/11 11:04:36;;;;;;;6.35;2.35;;;26.70;95.10;;;;;;5011363;28;20360;-80
2022/09/11 11:07:27;;;;;;;4.50;1.67;;;27.20;95.60;;;;;;4995547;28;20117;-82
2022/09/11 11:10:16;;;;;;;6.75;1.52;;;27.50;95.10;;;;;;5013093;28;20489;-82
2022/09/11 11:13:12;;;;;;;4.82;1.45;;;27.80;94.30;;;;;;5012348;28;20629;-80
2022/09/11 11:16:27;;;;;;;5.07;1.92;;;28.00;93.80;;;;;;5011104;28;20137;-78
2022/09/11 11:19:26;;;;;;;4.95;1.63;;;28.50;93.10;;;;;;5010338;28;20045;-78
2022/09/11 11:22:46;;;;;;;3.85;1.58;;;28.60;92.60;;;;;;4996561;28;20164;-81
2022/09/11 11:25:46;;;;;;;5.15;1.42;;;28.30;92.10;;;;;;5010542;28;20053;-79
2022/09/11 11:29:00;;;;;;;4.10;1.48;;;28.50;92.80;;;;;;5011677;28;20090;-78
2022/09/11 11:32:19;;;;;;;4.00;1.48;;;28.60;92.10;;;;;;5011145;28;20139;-79
2022/09/11 11:35:15;;;;;;;3.85;1.30;;;29.00;93.30;;;;;;5010663;28;20057;-80
2022/09/11 11:38:26;;;;;;;4.30;1.33;;;29.20;92.80;;;;;;4993512;28;20129;-82
2022/09/11 11:41:23;;;;;;;4.55;1.27;;;29.50;91.70;;;;;;4993257;28;20473;-79
2022/09/11 11:44:20;;;;;;;4.18;1.80;;;29.50;90.80;;;;;;4996353;28;20053;-79
2022/09/11 11:47:11;;;;;;;4.07;1.30;;;29.70;90.80;;;;;;5010585;28;20049;-79
2022/09/11 11:50:09;;;;;;;6.35;1.45;;;29.60;91.50;;;;;;5011117;28;20054;-78
2022/09/11 11:52:55;;;;;;;4.18;1.08;;;29.80;90.40;;;;;;5010986;28;20050;-79
2022/09/11 11:56:18;;;;;;;7.68;4.05;;;30.20;90.40;;;;;;5010830;28;20046;-78
2022/09/11 11:59:17;;;;;;;5.70;1.33;;;30.60;90.00;;;;;;5010551;28;20097;-79
2022/09/11 12:02:11;;;;;;;4.22;1.52;;;30.70;89.60;;;;;;4967474;28;20053;-77
2022/09/11 12:05:04;;;;;;;4.70;1.20;;;30.80;87.50;;;;;;4992224;28;20053;-78
2022/09/11 12:07:51;;;;;;;4.30;1.13;;;30.70;87.00;;;;;;4983322;28;20100;-77
2022/09/11 12:10:40;;;;;;;2.13;0.80;;;31.00;87.10;;;;;;4978912;28;20054;-78
2022/09/11 12:13:32;;;;;;;3.45;1.20;;;31.60;87.50;;;;;;5009637;28;20054;-78
2022/09/11 12:16:33;;;;;;;3.92;1.00;;;31.90;84.10;;;;;;5011183;28;20046;-78
2022/09/11 12:19:24;;;;;;;3.25;0.90;;;31.90;83.10;;;;;;5011183;28;20053;-79
2022/09/11 12:22:11;;;;;;;3.55;0.95;;;32.40;82.50;;;;;;5011153;28;20046;-78
2022/09/11 12:24:57;;;;;;;3.42;1.20;;;32.90;83.70;;;;;;5010147;28;20053;-78
2022/09/11 12:27:50;;;;;;;3.13;0.82;;;33.20;81.80;;;;;;4995917;28;20132;-77
2022/09/11 12:31:14;;;;;;;3.60;0.90;;;33.90;79.60;;;;;;5010932;28;20417;-80
2022/09/11 12:34:00;;;;;;;5.28;0.90;;;34.20;76.90;;;;;;5013221;28;20498;-78
2022/09/11 12:37:03;;;;;;;3.42;1.15;;;34.60;75.20;;;;;;4983190;28;20521;-78
2022/09/11 12:39:52;;;;;;;3.47;1.25;;;34.50;74.50;;;;;;4999261;28;20057;-78
2022/09/11 12:42:59;;;;;;;3.80;1.00;;;34.60;73.20;;;;;;4999317;28;20045;-78
2022/09/11 12:45:47;;;;;;;2.78;0.77;;;35.30;72.40;;;;;;4975083;28;20045;-81
2022/09/11 12:48:37;;;;;;;4.55;1.10;;;35.50;71.30;;;;;;5013573;28;20092;-77
2022/09/11 12:51:24;;;;;;;3.03;1.05;;;36.00;72.00;;;;;;4999572;28;20104;-82
2022/09/11 12:54:28;;;;;;;3.55;0.90;;;36.10;68.10;;;;;;5000449;28;20058;-83
2022/09/11 12:57:20;;;;;;;3.58;1.20;;;36.70;69.00;;;;;;5013110;28;20452;-83
2022/09/11 13:00:27;;;;;;;3.72;1.10;;;36.80;65.80;;;;;;5013014;28;20057;-83
2022/09/11 13:03:23;;;;;;;4.85;0.80;;;37.30;65.50;;;;;;4995321;28;20050;-80
2022/09/11 13:06:12;;;;;;;3.65;0.90;;;37.30;63.40;;;;;;5012991;28;20489;-79
2022/09/11 13:09:01;;;;;;;6.00;1.27;;;37.70;61.60;;;;;;5014085;28;20077;-82
2022/09/11 13:11:52;;;;;;;3.80;1.02;;;37.70;59.60;;;;;;4996771;28;20109;-83
2022/09/11 13:14:55;;;;;;;3.25;0.90;;;38.00;60.40;;;;;;5012947;28;20061;-80
2022/09/11 13:17:45;;;;;;;4.90;1.05;;;38.00;58.50;;;;;;5013252;28;20064;-77
2022/09/11 13:20:32;;;;;;;3.42;1.23;;;37.90;59.60;;;;;;4997912;28;20062;-78
2022/09/11 13:23:18;;;;;;;4.20;0.70;;;38.10;59.40;;;;;;5013852;28;20409;-77
2022/09/11 13:26:06;;;;;;;2.58;0.70;;;38.00;58.30;;;;;;5011853;28;20193;-79
2022/09/11 13:28:55;;;;;;;3.45;0.80;;;37.70;57.70;;;;;;4998931;28;20049;-77
2022/09/11 13:31:42;;;;;;;7.93;1.27;;;37.70;58.40;;;;;;4994596;28;20060;-78
2022/09/11 13:34:29;;;;;;;3.83;0.88;;;37.80;57.60;;;;;;5012669;28;20516;-78
2022/09/11 13:37:32;;;;;;;4.85;0.95;;;38.30;57.50;;;;;;5013968;28;20057;-79
2022/09/11 13:40:30;;;;;;;4.45;0.80;;;38.00;56.90;;;;;;5013664;28;20081;-77
2022/09/11 13:43:20;;;;;;;3.33;0.75;;;38.40;57.30;;;;;;4981270;28;20046;-78
2022/09/11 13:46:15;;;;;;;2.38;0.70;;;38.60;56.30;;;;;;5012891;28;20205;-78
2022/09/11 13:49:05;;;;;;;5.25;1.10;;;38.50;56.10;;;;;;5013117;28;20053;-78
2022/09/11 13:51:52;;;;;;;3.42;1.10;;;38.50;55.90;;;;;;4994937;28;20061;-79
2022/09/11 13:54:50;;;;;;;3.70;0.82;;;38.80;56.10;;;;;;4994834;28;20137;-79
2022/09/11 13:57:59;;;;;;;3.80;1.00;;;38.90;55.70;;;;;;5012668;28;20073;-77
2022/09/11 14:00:49;;;;;;;6.63;2.67;;;39.20;54.00;;;;;;4999732;28;20046;-78
2022/09/11 14:03:36;;;;;;;4.53;1.08;;;39.00;54.70;;;;;;5012952;28;20050;-78
2022/09/11 14:06:22;;;;;;;3.42;1.17;;;39.50;54.50;;;;;;5013538;28;20082;-77
2022/09/11 14:09:17;;;;;;;2.75;0.80;;;39.60;53.60;;;;;;5014178;28;20053;-76
2022/09/11 14:12:04;;;;;;;4.75;0.98;;;39.50;53.20;;;;;;5014869;28;20053;-80
2022/09/11 14:14:56;;;;;;;4.05;1.05;;;40.00;52.70;;;;;;4999685;28;20050;-80
2022/09/11 14:17:42;;;;;;;5.22;0.98;;;39.70;52.50;;;;;;5014991;28;20056;-79
2022/09/11 14:20:29;;;;;;;2.92;1.20;;;39.90;52.10;;;;;;4982733;28;20529;-76
2022/09/11 14:23:26;;;;;;;2.60;0.90;;;39.80;51.80;;;;;;5001036;28;20259;-78
2022/09/11 14:26:21;;;;;;;2.88;0.80;;;39.80;51.60;;;;;;4971304;28;20053;-78
2022/09/11 14:29:11;;;;;;;2.55;0.90;;;39.80;52.10;;;;;;4995671;28;20062;-78
2022/09/11 14:32:30;;;;;;;2.90;0.80;;;39.50;51.20;;;;;;5013322;28;20093;-78
2022/09/11 14:35:16;;;;;;;4.03;0.88;;;39.60;51.30;;;;;;5012785;28;20050;-84
2022/09/11 14:38:02;;;;;;;3.00;0.90;;;39.90;51.60;;;;;;5013249;28;20157;-80
2022/09/11 14:40:54;;;;;;;2.78;0.80;;;39.80;51.00;;;;;;4994584;28;20050;-79
2022/09/11 14:43:40;;;;;;;4.35;1.17;;;39.80;50.70;;;;;;4997361;28;20501;-80
2022/09/11 14:46:26;;;;;;;3.40;1.10;;;40.00;51.00;;;;;;5011243;28;20049;-79
2022/09/11 14:49:14;;;;;;;4.10;1.00;;;40.10;49.70;;;;;;5012468;28;20125;-78
2022/09/11 14:52:01;;;;;;;3.38;1.00;;;39.80;50.80;;;;;;4997857;28;20053;-79